首页
METAR-TAF:

METAR-TAF

机场 :

卡利斯佩尔, 蒙大拿州, 美国

纬度: 48-18-15N, 经度: 114-15-49W, 海拔: 906米

当前天气观测

该预报发布于38分钟前的01:55 UTC
静风
温度 1°C
湿度 80%
气压 1018 hPa
能見度: 16.1公里
多云层高于6000英尺
多云层高于8500英尺

METAR: KGPI 230155Z 00000KT 10SM BKN060 BKN085 01/M02 A3007 RMK AO2 SLP206 T00111022

时间: 19:33 (02:33 UTC)

预报

该预报发布于3小时和13分钟前的23:20 UTC
预报有效从23日的 00点(UTC)到 23日的 24点(UTC)
风速10节,风向
能見度: 10公里
阴天层高于5000英尺
小阵雨, 雪
从 23日的 0400点(UTC)
风速6节,风向
能見度: 8.0公里
阴天层高于3000英尺
小雪, 轻雾
从 23日的 0800点(UTC)
风速3节,风向
能見度: 1.6公里
散云层高于1500英尺
阴天层高于2500英尺
小雪
从 23日的 1400点(UTC)
风速3节,风向
能見度: 4.8公里
阴天层高于3000英尺
小雪

TAF: KGPI 222320Z 2300/2324 17010KT P6SM -SHRASN OVC050 FM230400 17006KT 5SM -SN BR OVC030 FM230800 17003KT 1SM -SN SCT015 OVC025 FM231400 18003KT 3SM -SN OVC030

超过4000个机场的气象观测和天气预报(METAR&TAF报告)。

可查询的气象台以黄色和红色小点在地图上表示。

将鼠标移到小点上方,可查看气象台名称。

然后点击查看天气观测和预报。

如需切换地图:点击带黑十字的绿色按钮放大地图;点击带横线的绿色按钮缩小地图;或者点击绿色箭头查看邻近地区的地图。


METAR-TAF: